This is the latest recevied weather packets stored in our database for station/object Kisslegg. If no packets are shown the sender has not sent any weather packets the latest 10 day(s).
| Time | Temp. | Humidity | Pressure | Rain* | Wind** | Luminosity | Snow |
|---|---|---|---|---|---|---|---|
| 1777953731 | 8.33° C | 94% | 1008.5 hPa | 0 mm | - | - | - |
| 1777951931 | 8.33° C | 94% | 1008.6 hPa | 0 mm | - | - | - |
| 1777950133 | 8.33° C | 93% | 1008.8 hPa | 0 mm | - | - | - |
| 1777948331 | 8.89° C | 93% | 1009 hPa | 0 mm | - | - | - |
| 1777946531 | 8.89° C | 92% | 1009.2 hPa | 0 mm | - | - | - |
| 1777944731 | 9.44° C | 91% | 1009.5 hPa | 0 mm | - | - | - |
| 1777942931 | 9.44° C | 89% | 1009.7 hPa | 0 mm | - | - | - |
| 1777941129 | 10° C | 88% | 1010.2 hPa | 0 mm | - | - | - |
| 1777939330 | 10.56° C | 87% | 1010.2 hPa | 0 mm | - | - | - |
| 1777937529 | 10.56° C | 85% | 1010.4 hPa | 0 mm | - | - | - |
| 1777935730 | 11.11° C | 79% | 1010.6 hPa | 0 mm | - | - | - |
| 1777933935 | 11.67° C | 72% | 1010.9 hPa | 0 mm | - | - | - |
| 1777932129 | 12.22° C | 68% | 1011 hPa | 0 mm | - | - | - |
| 1777930329 | 13.33° C | 64% | 1011.2 hPa | 0 mm | - | - | - |
| 1777928529 | 13.89° C | 61% | 1011 hPa | 0 mm | - | - | - |
| 1777926729 | 15.56° C | 55% | 1010.8 hPa | 0 mm | - | - | - |
| 1777924929 | 15.56° C | 55% | 1010.8 hPa | 0 mm | - | - | - |
| 1777923129 | 16.11° C | 55% | 1010.7 hPa | 0 mm | - | - | - |
| 1777921329 | 16.67° C | 52% | 1010.6 hPa | 0 mm | - | - | - |
| 1777919529 | 17.22° C | 52% | 1010.8 hPa | 0 mm | - | - | - |
| 1777917734 | 17.78° C | 53% | 1010.7 hPa | 0 mm | - | - | - |
| 1777915929 | 18.89° C | 49% | 1010.5 hPa | 0 mm | - | - | - |
| 1777914130 | 19.44° C | 48% | 1010.6 hPa | 0 mm | - | - | - |
| 1777912332 | 20.56° C | 44% | 1010.4 hPa | 0 mm | - | - | - |
| 1777910530 | 21.11° C | 40% | 1010.4 hPa | 0 mm | - | - | - |
* Rain since midnight (hover to see other rain measurements)
** Current wind speed in m/s (hover to see current wind gust speed)